sensor_id;sensor_type;location;lat;lon;timestamp;P1;durP1;ratioP1;P2;durP2;ratioP2
61821;SDS011;47749;51.104;7.008;2024-01-07T00:00:09;19.37;;;10.17;;
61821;SDS011;47749;51.104;7.008;2024-01-07T00:00:30;18.35;;;10.05;;
61821;SDS011;47749;51.104;7.008;2024-01-07T00:00:50;17.63;;;9.47;;
61821;SDS011;47749;51.104;7.008;2024-01-07T00:01:11;17.58;;;9.75;;
61821;SDS011;47749;51.104;7.008;2024-01-07T00:01:31;17.67;;;9.53;;
61821;SDS011;47749;51.104;7.008;2024-01-07T00:01:51;17.55;;;9.52;;
61821;SDS011;47749;51.104;7.008;2024-01-07T00:02:12;16.53;;;9.40;;
61821;SDS011;47749;51.104;7.008;2024-01-07T00:02:32;16.40;;;9.57;;
61821;SDS011;47749;51.104;7.008;2024-01-07T00:02:52;15.90;;;9.13;;
61821;SDS011;47749;51.104;7.008;2024-01-07T00:03:13;16.13;;;8.97;;
61821;SDS011;47749;51.104;7.008;2024-01-07T00:03:33;15.87;;;9.03;;
61821;SDS011;47749;51.104;7.008;2024-01-07T00:03:53;17.05;;;9.48;;
61821;SDS011;47749;51.104;7.008;2024-01-07T00:04:14;16.30;;;9.10;;
61821;SDS011;47749;51.104;7.008;2024-01-07T00:04:35;15.45;;;8.73;;
61821;SDS011;47749;51.104;7.008;2024-01-07T00:04:56;15.77;;;8.70;;
61821;SDS011;47749;51.104;7.008;2024-01-07T00:05:19;16.17;;;9.10;;
61821;SDS011;47749;51.104;7.008;2024-01-07T00:05:39;15.57;;;8.63;;
61821;SDS011;47749;51.104;7.008;2024-01-07T00:06:00;15.38;;;8.60;;
61821;SDS011;47749;51.104;7.008;2024-01-07T00:06:21;15.67;;;8.70;;
61821;SDS011;47749;51.104;7.008;2024-01-07T00:06:47;15.70;;;9.20;;
61821;SDS011;47749;51.104;7.008;2024-01-07T00:07:07;16.40;;;9.25;;
61821;SDS011;47749;51.104;7.008;2024-01-07T00:07:29;15.67;;;8.43;;
61821;SDS011;47749;51.104;7.008;2024-01-07T00:07:50;15.18;;;8.40;;
61821;SDS011;47749;51.104;7.008;2024-01-07T00:08:11;15.05;;;8.38;;
61821;SDS011;47749;51.104;7.008;2024-01-07T00:08:32;14.93;;;8.27;;
61821;SDS011;47749;51.104;7.008;2024-01-07T00:08:53;16.50;;;9.00;;
61821;SDS011;47749;51.104;7.008;2024-01-07T00:09:13;15.98;;;9.00;;
61821;SDS011;47749;51.104;7.008;2024-01-07T00:09:34;14.73;;;8.35;;
61821;SDS011;47749;51.104;7.008;2024-01-07T00:09:56;14.65;;;8.20;;
61821;SDS011;47749;51.104;7.008;2024-01-07T00:10:20;14.88;;;8.20;;
61821;SDS011;47749;51.104;7.008;2024-01-07T00:10:41;15.13;;;8.15;;
61821;SDS011;47749;51.104;7.008;2024-01-07T00:11:03;14.23;;;7.82;;
61821;SDS011;47749;51.104;7.008;2024-01-07T00:11:24;14.23;;;8.23;;
61821;SDS011;47749;51.104;7.008;2024-01-07T00:11:45;14.27;;;7.75;;
61821;SDS011;47749;51.104;7.008;2024-01-07T00:12:06;14.63;;;7.93;;
61821;SDS011;47749;51.104;7.008;2024-01-07T00:12:26;12.87;;;7.47;;
61821;SDS011;47749;51.104;7.008;2024-01-07T00:12:47;12.77;;;7.63;;
61821;SDS011;47749;51.104;7.008;2024-01-07T00:13:10;14.60;;;8.30;;
61821;SDS011;47749;51.104;7.008;2024-01-07T00:13:30;14.30;;;8.23;;
61821;SDS011;47749;51.104;7.008;2024-01-07T00:13:51;12.75;;;7.30;;
61821;SDS011;47749;51.104;7.008;2024-01-07T00:14:12;13.52;;;7.72;;
61821;SDS011;47749;51.104;7.008;2024-01-07T00:14:32;13.43;;;7.47;;
61821;SDS011;47749;51.104;7.008;2024-01-07T00:14:52;12.18;;;7.03;;
61821;SDS011;47749;51.104;7.008;2024-01-07T00:15:13;13.43;;;7.55;;
61821;SDS011;47749;51.104;7.008;2024-01-07T00:15:33;13.70;;;7.80;;
61821;SDS011;47749;51.104;7.008;2024-01-07T00:15:56;12.90;;;7.43;;
61821;SDS011;47749;51.104;7.008;2024-01-07T00:16:16;13.33;;;7.60;;
61821;SDS011;47749;51.104;7.008;2024-01-07T00:16:37;12.43;;;7.25;;
61821;SDS011;47749;51.104;7.008;2024-01-07T00:16:57;12.33;;;7.20;;
61821;SDS011;47749;51.104;7.008;2024-01-07T00:17:18;13.50;;;7.30;;
61821;SDS011;47749;51.104;7.008;2024-01-07T00:17:38;13.40;;;7.23;;
61821;SDS011;47749;51.104;7.008;2024-01-07T00:17:59;13.18;;;7.13;;
61821;SDS011;47749;51.104;7.008;2024-01-07T00:18:19;11.90;;;6.23;;
61821;SDS011;47749;51.104;7.008;2024-01-07T00:18:39;11.05;;;6.10;;
61821;SDS011;47749;51.104;7.008;2024-01-07T00:19:00;11.17;;;6.50;;
61821;SDS011;47749;51.104;7.008;2024-01-07T00:19:20;11.93;;;6.30;;
61821;SDS011;47749;51.104;7.008;2024-01-07T00:19:40;11.25;;;6.28;;
61821;SDS011;47749;51.104;7.008;2024-01-07T00:20:01;10.23;;;5.93;;
61821;SDS011;47749;51.104;7.008;2024-01-07T00:20:22;10.87;;;6.17;;
61821;SDS011;47749;51.104;7.008;2024-01-07T00:20:42;10.95;;;6.53;;
61821;SDS011;47749;51.104;7.008;2024-01-07T00:21:03;10.95;;;6.07;;
61821;SDS011;47749;51.104;7.008;2024-01-07T00:21:23;11.10;;;6.00;;
61821;SDS011;47749;51.104;7.008;2024-01-07T00:21:44;10.30;;;5.70;;
61821;SDS011;47749;51.104;7.008;2024-01-07T00:22:04;10.13;;;5.80;;
61821;SDS011;47749;51.104;7.008;2024-01-07T00:22:24;10.50;;;5.97;;
61821;SDS011;47749;51.104;7.008;2024-01-07T00:22:45;11.02;;;5.93;;
61821;SDS011;47749;51.104;7.008;2024-01-07T00:23:05;10.50;;;5.80;;
61821;SDS011;47749;51.104;7.008;2024-01-07T00:23:25;9.95;;;6.00;;
61821;SDS011;47749;51.104;7.008;2024-01-07T00:23:53;9.90;;;5.90;;
61821;SDS011;47749;51.104;7.008;2024-01-07T00:24:14;9.80;;;5.60;;
61821;SDS011;47749;51.104;7.008;2024-01-07T00:24:34;11.20;;;6.00;;
61821;SDS011;47749;51.104;7.008;2024-01-07T00:24:54;9.70;;;5.70;;
61821;SDS011;47749;51.104;7.008;2024-01-07T00:25:14;10.07;;;5.77;;
61821;SDS011;47749;51.104;7.008;2024-01-07T00:25:35;9.80;;;5.87;;
61821;SDS011;47749;51.104;7.008;2024-01-07T00:25:55;9.80;;;5.73;;
61821;SDS011;47749;51.104;7.008;2024-01-07T00:26:15;10.67;;;5.90;;
61821;SDS011;47749;51.104;7.008;2024-01-07T00:26:36;10.65;;;6.18;;
61821;SDS011;47749;51.104;7.008;2024-01-07T00:26:56;10.40;;;5.90;;
61821;SDS011;47749;51.104;7.008;2024-01-07T00:27:16;10.27;;;5.60;;
61821;SDS011;47749;51.104;7.008;2024-01-07T00:27:37;10.27;;;5.60;;
61821;SDS011;47749;51.104;7.008;2024-01-07T00:27:58;9.98;;;5.53;;
61821;SDS011;47749;51.104;7.008;2024-01-07T00:28:19;10.30;;;5.57;;
61821;SDS011;47749;51.104;7.008;2024-01-07T00:28:39;10.40;;;6.27;;
61821;SDS011;47749;51.104;7.008;2024-01-07T00:28:59;9.80;;;5.88;;
61821;SDS011;47749;51.104;7.008;2024-01-07T00:29:19;9.87;;;5.73;;
61821;SDS011;47749;51.104;7.008;2024-01-07T00:29:40;10.90;;;6.20;;
61821;SDS011;47749;51.104;7.008;2024-01-07T00:30:00;11.45;;;6.35;;
61821;SDS011;47749;51.104;7.008;2024-01-07T00:30:20;12.30;;;6.33;;
61821;SDS011;47749;51.104;7.008;2024-01-07T00:30:41;10.33;;;5.80;;
61821;SDS011;47749;51.104;7.008;2024-01-07T00:31:01;10.40;;;5.93;;
61821;SDS011;47749;51.104;7.008;2024-01-07T00:31:22;10.00;;;5.83;;
61821;SDS011;47749;51.104;7.008;2024-01-07T00:31:42;10.18;;;5.70;;
61821;SDS011;47749;51.104;7.008;2024-01-07T00:32:02;10.27;;;6.10;;
61821;SDS011;47749;51.104;7.008;2024-01-07T00:32:23;9.95;;;5.57;;
61821;SDS011;47749;51.104;7.008;2024-01-07T00:32:43;10.10;;;5.60;;
61821;SDS011;47749;51.104;7.008;2024-01-07T00:33:03;10.23;;;6.32;;
61821;SDS011;47749;51.104;7.008;2024-01-07T00:33:24;9.77;;;6.30;;
61821;SDS011;47749;51.104;7.008;2024-01-07T00:33:44;10.47;;;6.20;;
61821;SDS011;47749;51.104;7.008;2024-01-07T00:34:05;10.27;;;5.88;;
61821;SDS011;47749;51.104;7.008;2024-01-07T00:34:26;10.00;;;5.78;;
61821;SDS011;47749;51.104;7.008;2024-01-07T00:34:46;11.27;;;5.80;;
61821;SDS011;47749;51.104;7.008;2024-01-07T00:35:07;11.97;;;6.47;;
61821;SDS011;47749;51.104;7.008;2024-01-07T00:35:27;11.60;;;6.67;;
61821;SDS011;47749;51.104;7.008;2024-01-07T00:35:47;10.23;;;6.13;;
61821;SDS011;47749;51.104;7.008;2024-01-07T00:36:07;10.37;;;5.83;;
61821;SDS011;47749;51.104;7.008;2024-01-07T00:36:28;10.57;;;5.80;;
61821;SDS011;47749;51.104;7.008;2024-01-07T00:36:48;10.80;;;5.90;;
61821;SDS011;47749;51.104;7.008;2024-01-07T00:37:08;10.80;;;5.70;;
61821;SDS011;47749;51.104;7.008;2024-01-07T00:37:29;10.97;;;6.30;;
61821;SDS011;47749;51.104;7.008;2024-01-07T00:37:49;10.67;;;6.33;;
61821;SDS011;47749;51.104;7.008;2024-01-07T00:38:09;10.57;;;5.97;;
61821;SDS011;47749;51.104;7.008;2024-01-07T00:38:30;10.20;;;6.03;;
61821;SDS011;47749;51.104;7.008;2024-01-07T00:38:50;10.18;;;6.05;;
61821;SDS011;47749;51.104;7.008;2024-01-07T00:39:11;10.30;;;6.10;;
61821;SDS011;47749;51.104;7.008;2024-01-07T00:39:31;10.52;;;6.28;;
61821;SDS011;47749;51.104;7.008;2024-01-07T00:39:51;11.43;;;6.00;;
61821;SDS011;47749;51.104;7.008;2024-01-07T00:40:12;9.67;;;5.40;;
61821;SDS011;47749;51.104;7.008;2024-01-07T00:40:32;10.00;;;5.82;;
61821;SDS011;47749;51.104;7.008;2024-01-07T00:40:52;10.57;;;6.23;;
61821;SDS011;47749;51.104;7.008;2024-01-07T00:41:13;9.93;;;6.07;;
61821;SDS011;47749;51.104;7.008;2024-01-07T00:41:34;10.45;;;6.45;;
61821;SDS011;47749;51.104;7.008;2024-01-07T00:41:54;10.60;;;6.50;;
61821;SDS011;47749;51.104;7.008;2024-01-07T00:42:14;11.23;;;6.30;;
61821;SDS011;47749;51.104;7.008;2024-01-07T00:42:34;10.10;;;6.05;;
61821;SDS011;47749;51.104;7.008;2024-01-07T00:42:55;9.47;;;5.83;;
61821;SDS011;47749;51.104;7.008;2024-01-07T00:43:15;10.23;;;6.33;;
61821;SDS011;47749;51.104;7.008;2024-01-07T00:43:35;11.68;;;6.82;;
61821;SDS011;47749;51.104;7.008;2024-01-07T00:43:56;11.27;;;6.13;;
61821;SDS011;47749;51.104;7.008;2024-01-07T00:44:16;10.98;;;6.07;;
61821;SDS011;47749;51.104;7.008;2024-01-07T00:44:37;10.67;;;6.03;;
61821;SDS011;47749;51.104;7.008;2024-01-07T00:44:57;9.77;;;6.00;;
61821;SDS011;47749;51.104;7.008;2024-01-07T00:45:17;10.77;;;6.30;;
61821;SDS011;47749;51.104;7.008;2024-01-07T00:45:41;10.40;;;6.13;;
61821;SDS011;47749;51.104;7.008;2024-01-07T00:46:02;9.68;;;6.00;;
61821;SDS011;47749;51.104;7.008;2024-01-07T00:46:22;9.23;;;5.80;;
61821;SDS011;47749;51.104;7.008;2024-01-07T00:46:42;9.87;;;5.60;;
61821;SDS011;47749;51.104;7.008;2024-01-07T00:47:03;10.20;;;5.72;;
61821;SDS011;47749;51.104;7.008;2024-01-07T00:47:25;9.67;;;5.37;;
61821;SDS011;47749;51.104;7.008;2024-01-07T00:47:46;9.57;;;5.43;;
61821;SDS011;47749;51.104;7.008;2024-01-07T00:48:06;10.10;;;5.77;;
61821;SDS011;47749;51.104;7.008;2024-01-07T00:48:26;10.10;;;5.38;;
61821;SDS011;47749;51.104;7.008;2024-01-07T00:48:47;9.67;;;5.67;;
61821;SDS011;47749;51.104;7.008;2024-01-07T00:49:07;10.60;;;6.10;;
61821;SDS011;47749;51.104;7.008;2024-01-07T00:49:27;10.00;;;5.57;;
61821;SDS011;47749;51.104;7.008;2024-01-07T00:49:48;10.38;;;5.68;;
61821;SDS011;47749;51.104;7.008;2024-01-07T00:50:08;10.23;;;6.13;;
61821;SDS011;47749;51.104;7.008;2024-01-07T00:50:29;10.67;;;6.20;;
61821;SDS011;47749;51.104;7.008;2024-01-07T00:50:49;11.30;;;6.40;;
61821;SDS011;47749;51.104;7.008;2024-01-07T00:51:09;11.33;;;6.10;;
61821;SDS011;47749;51.104;7.008;2024-01-07T00:51:30;10.27;;;5.70;;
61821;SDS011;47749;51.104;7.008;2024-01-07T00:51:50;9.20;;;5.47;;
61821;SDS011;47749;51.104;7.008;2024-01-07T00:52:10;9.37;;;5.73;;
61821;SDS011;47749;51.104;7.008;2024-01-07T00:52:31;10.27;;;6.07;;
61821;SDS011;47749;51.104;7.008;2024-01-07T00:52:51;9.97;;;5.77;;
61821;SDS011;47749;51.104;7.008;2024-01-07T00:53:11;9.23;;;5.28;;
61821;SDS011;47749;51.104;7.008;2024-01-07T00:53:32;9.67;;;5.43;;
61821;SDS011;47749;51.104;7.008;2024-01-07T00:53:52;9.60;;;5.67;;
61821;SDS011;47749;51.104;7.008;2024-01-07T00:54:13;9.43;;;5.43;;
61821;SDS011;47749;51.104;7.008;2024-01-07T00:54:33;10.35;;;5.78;;
61821;SDS011;47749;51.104;7.008;2024-01-07T00:54:53;9.10;;;5.40;;
61821;SDS011;47749;51.104;7.008;2024-01-07T00:55:14;10.40;;;5.93;;
61821;SDS011;47749;51.104;7.008;2024-01-07T00:55:37;10.15;;;6.47;;
61821;SDS011;47749;51.104;7.008;2024-01-07T00:56:09;9.52;;;5.85;;
61821;SDS011;47749;51.104;7.008;2024-01-07T00:56:29;10.50;;;6.20;;
61821;SDS011;47749;51.104;7.008;2024-01-07T00:56:50;9.52;;;5.78;;
61821;SDS011;47749;51.104;7.008;2024-01-07T00:57:10;10.03;;;6.20;;
61821;SDS011;47749;51.104;7.008;2024-01-07T00:57:32;10.27;;;5.75;;
61821;SDS011;47749;51.104;7.008;2024-01-07T00:57:53;9.48;;;5.63;;
61821;SDS011;47749;51.104;7.008;2024-01-07T00:58:13;9.87;;;5.87;;
61821;SDS011;47749;51.104;7.008;2024-01-07T00:58:33;9.63;;;5.73;;
61821;SDS011;47749;51.104;7.008;2024-01-07T00:58:53;9.67;;;6.17;;
61821;SDS011;47749;51.104;7.008;2024-01-07T00:59:14;10.63;;;6.40;;
61821;SDS011;47749;51.104;7.008;2024-01-07T00:59:34;9.87;;;6.00;;
61821;SDS011;47749;51.104;7.008;2024-01-07T00:59:54;11.07;;;6.60;;
61821;SDS011;47749;51.104;7.008;2024-01-07T01:00:14;10.47;;;6.23;;
61821;SDS011;47749;51.104;7.008;2024-01-07T01:00:35;10.68;;;6.28;;
61821;SDS011;47749;51.104;7.008;2024-01-07T01:00:55;10.23;;;6.03;;
61821;SDS011;47749;51.104;7.008;2024-01-07T01:01:15;10.20;;;5.93;;
61821;SDS011;47749;51.104;7.008;2024-01-07T01:01:36;9.70;;;6.10;;
61821;SDS011;47749;51.104;7.008;2024-01-07T01:01:56;9.73;;;5.80;;
61821;SDS011;47749;51.104;7.008;2024-01-07T01:02:16;11.10;;;6.03;;
61821;SDS011;47749;51.104;7.008;2024-01-07T01:02:37;10.07;;;6.15;;
61821;SDS011;47749;51.104;7.008;2024-01-07T01:02:57;10.37;;;6.20;;
61821;SDS011;47749;51.104;7.008;2024-01-07T01:03:18;9.95;;;6.10;;
61821;SDS011;47749;51.104;7.008;2024-01-07T01:03:38;10.38;;;6.40;;
61821;SDS011;47749;51.104;7.008;2024-01-07T01:03:59;9.87;;;5.90;;
61821;SDS011;47749;51.104;7.008;2024-01-07T01:04:19;9.68;;;5.90;;
61821;SDS011;47749;51.104;7.008;2024-01-07T01:04:40;9.68;;;6.05;;
61821;SDS011;47749;51.104;7.008;2024-01-07T01:05:01;12.27;;;6.57;;
61821;SDS011;47749;51.104;7.008;2024-01-07T01:05:21;10.77;;;6.20;;
61821;SDS011;47749;51.104;7.008;2024-01-07T01:05:41;9.87;;;5.83;;
61821;SDS011;47749;51.104;7.008;2024-01-07T01:06:02;10.60;;;6.00;;
61821;SDS011;47749;51.104;7.008;2024-01-07T01:06:22;11.37;;;6.60;;
61821;SDS011;47749;51.104;7.008;2024-01-07T01:06:42;10.07;;;6.07;;
61821;SDS011;47749;51.104;7.008;2024-01-07T01:07:03;9.40;;;5.78;;
61821;SDS011;47749;51.104;7.008;2024-01-07T01:07:23;9.10;;;5.57;;
61821;SDS011;47749;51.104;7.008;2024-01-07T01:07:43;10.00;;;5.97;;
61821;SDS011;47749;51.104;7.008;2024-01-07T01:08:04;10.02;;;5.97;;
61821;SDS011;47749;51.104;7.008;2024-01-07T01:08:24;9.53;;;5.57;;
61821;SDS011;47749;51.104;7.008;2024-01-07T01:08:44;9.60;;;5.68;;
61821;SDS011;47749;51.104;7.008;2024-01-07T01:09:05;9.60;;;5.80;;
61821;SDS011;47749;51.104;7.008;2024-01-07T01:09:27;9.40;;;5.47;;
61821;SDS011;47749;51.104;7.008;2024-01-07T01:09:47;9.23;;;5.72;;
61821;SDS011;47749;51.104;7.008;2024-01-07T01:10:08;9.30;;;5.90;;
61821;SDS011;47749;51.104;7.008;2024-01-07T01:10:28;10.50;;;6.20;;
61821;SDS011;47749;51.104;7.008;2024-01-07T01:10:49;10.77;;;6.38;;
61821;SDS011;47749;51.104;7.008;2024-01-07T01:11:09;10.40;;;5.97;;
61821;SDS011;47749;51.104;7.008;2024-01-07T01:11:30;11.30;;;6.03;;
61821;SDS011;47749;51.104;7.008;2024-01-07T01:11:50;11.63;;;6.60;;
61821;SDS011;47749;51.104;7.008;2024-01-07T01:12:11;10.75;;;6.35;;
61821;SDS011;47749;51.104;7.008;2024-01-07T01:12:31;11.23;;;6.07;;
61821;SDS011;47749;51.104;7.008;2024-01-07T01:12:51;10.90;;;6.43;;
61821;SDS011;47749;51.104;7.008;2024-01-07T01:13:14;10.02;;;6.40;;
61821;SDS011;47749;51.104;7.008;2024-01-07T01:13:34;9.23;;;6.10;;
61821;SDS011;47749;51.104;7.008;2024-01-07T01:13:54;10.52;;;6.35;;
61821;SDS011;47749;51.104;7.008;2024-01-07T01:14:15;10.77;;;6.47;;
61821;SDS011;47749;51.104;7.008;2024-01-07T01:14:35;11.57;;;6.63;;
61821;SDS011;47749;51.104;7.008;2024-01-07T01:14:55;11.23;;;6.47;;
61821;SDS011;47749;51.104;7.008;2024-01-07T01:15:15;10.23;;;6.23;;
61821;SDS011;47749;51.104;7.008;2024-01-07T01:15:38;9.82;;;6.22;;
61821;SDS011;47749;51.104;7.008;2024-01-07T01:15:59;10.00;;;6.10;;
61821;SDS011;47749;51.104;7.008;2024-01-07T01:16:19;11.40;;;6.93;;
61821;SDS011;47749;51.104;7.008;2024-01-07T01:16:40;11.10;;;6.57;;
61821;SDS011;47749;51.104;7.008;2024-01-07T01:17:00;11.60;;;6.43;;
61821;SDS011;47749;51.104;7.008;2024-01-07T01:17:20;11.65;;;6.97;;
61821;SDS011;47749;51.104;7.008;2024-01-07T01:17:41;12.53;;;7.47;;
61821;SDS011;47749;51.104;7.008;2024-01-07T01:18:01;12.03;;;7.03;;
61821;SDS011;47749;51.104;7.008;2024-01-07T01:18:21;12.00;;;7.00;;
61821;SDS011;47749;51.104;7.008;2024-01-07T01:18:42;12.10;;;6.97;;
61821;SDS011;47749;51.104;7.008;2024-01-07T01:19:02;11.77;;;6.60;;
61821;SDS011;47749;51.104;7.008;2024-01-07T01:19:23;12.67;;;6.73;;
61821;SDS011;47749;51.104;7.008;2024-01-07T01:19:44;12.27;;;7.15;;
61821;SDS011;47749;51.104;7.008;2024-01-07T01:20:04;11.70;;;7.00;;
61821;SDS011;47749;51.104;7.008;2024-01-07T01:20:25;12.20;;;6.72;;
61821;SDS011;47749;51.104;7.008;2024-01-07T01:20:45;11.80;;;6.57;;
61821;SDS011;47749;51.104;7.008;2024-01-07T01:21:06;12.55;;;6.80;;
61821;SDS011;47749;51.104;7.008;2024-01-07T01:21:27;11.00;;;6.55;;
61821;SDS011;47749;51.104;7.008;2024-01-07T01:21:47;10.17;;;6.50;;
61821;SDS011;47749;51.104;7.008;2024-01-07T01:22:08;11.30;;;6.70;;
61821;SDS011;47749;51.104;7.008;2024-01-07T01:22:28;11.67;;;7.00;;
61821;SDS011;47749;51.104;7.008;2024-01-07T01:22:48;12.17;;;7.60;;
61821;SDS011;47749;51.104;7.008;2024-01-07T01:23:08;11.73;;;7.00;;
61821;SDS011;47749;51.104;7.008;2024-01-07T01:23:30;11.98;;;6.90;;
61821;SDS011;47749;51.104;7.008;2024-01-07T01:23:51;12.63;;;7.13;;
61821;SDS011;47749;51.104;7.008;2024-01-07T01:24:11;12.18;;;6.63;;
61821;SDS011;47749;51.104;7.008;2024-01-07T01:24:35;11.13;;;6.57;;
61821;SDS011;47749;51.104;7.008;2024-01-07T01:24:55;11.25;;;6.60;;
61821;SDS011;47749;51.104;7.008;2024-01-07T01:25:16;11.80;;;6.53;;
61821;SDS011;47749;51.104;7.008;2024-01-07T01:25:36;12.10;;;6.90;;
61821;SDS011;47749;51.104;7.008;2024-01-07T01:25:57;11.37;;;6.67;;
61821;SDS011;47749;51.104;7.008;2024-01-07T01:26:17;11.07;;;6.55;;
61821;SDS011;47749;51.104;7.008;2024-01-07T01:26:37;11.57;;;7.17;;
61821;SDS011;47749;51.104;7.008;2024-01-07T01:26:59;11.45;;;6.80;;
61821;SDS011;47749;51.104;7.008;2024-01-07T01:27:20;12.05;;;6.60;;
61821;SDS011;47749;51.104;7.008;2024-01-07T01:27:40;12.57;;;6.83;;
61821;SDS011;47749;51.104;7.008;2024-01-07T01:28:00;13.73;;;7.87;;
61821;SDS011;47749;51.104;7.008;2024-01-07T01:28:20;12.60;;;7.70;;
61821;SDS011;47749;51.104;7.008;2024-01-07T01:28:41;13.13;;;7.43;;
61821;SDS011;47749;51.104;7.008;2024-01-07T01:29:01;12.37;;;7.20;;
61821;SDS011;47749;51.104;7.008;2024-01-07T01:29:21;12.10;;;7.20;;
61821;SDS011;47749;51.104;7.008;2024-01-07T01:29:41;12.30;;;7.20;;
61821;SDS011;47749;51.104;7.008;2024-01-07T01:30:02;12.83;;;7.63;;
61821;SDS011;47749;51.104;7.008;2024-01-07T01:30:23;13.68;;;7.90;;
61821;SDS011;47749;51.104;7.008;2024-01-07T01:30:43;12.73;;;7.63;;
61821;SDS011;47749;51.104;7.008;2024-01-07T01:31:03;13.17;;;7.40;;
61821;SDS011;47749;51.104;7.008;2024-01-07T01:31:23;13.40;;;7.43;;
61821;SDS011;47749;51.104;7.008;2024-01-07T01:31:44;13.02;;;7.32;;
61821;SDS011;47749;51.104;7.008;2024-01-07T01:32:04;13.60;;;8.00;;
61821;SDS011;47749;51.104;7.008;2024-01-07T01:32:24;14.07;;;8.10;;
61821;SDS011;47749;51.104;7.008;2024-01-07T01:32:45;13.25;;;8.13;;
61821;SDS011;47749;51.104;7.008;2024-01-07T01:33:05;12.10;;;7.20;;
61821;SDS011;47749;51.104;7.008;2024-01-07T01:33:26;13.15;;;7.20;;
61821;SDS011;47749;51.104;7.008;2024-01-07T01:33:46;13.27;;;7.43;;
61821;SDS011;47749;51.104;7.008;2024-01-07T01:34:06;14.80;;;8.37;;
61821;SDS011;47749;51.104;7.008;2024-01-07T01:34:26;14.43;;;8.07;;
61821;SDS011;47749;51.104;7.008;2024-01-07T01:34:47;13.97;;;7.80;;
61821;SDS011;47749;51.104;7.008;2024-01-07T01:35:07;14.27;;;7.63;;
61821;SDS011;47749;51.104;7.008;2024-01-07T01:35:27;14.50;;;7.80;;
61821;SDS011;47749;51.104;7.008;2024-01-07T01:35:48;13.50;;;7.83;;
61821;SDS011;47749;51.104;7.008;2024-01-07T01:36:08;14.50;;;7.80;;
61821;SDS011;47749;51.104;7.008;2024-01-07T01:36:30;15.10;;;8.00;;
61821;SDS011;47749;51.104;7.008;2024-01-07T01:36:50;14.38;;;7.88;;
61821;SDS011;47749;51.104;7.008;2024-01-07T01:37:11;14.55;;;7.95;;
61821;SDS011;47749;51.104;7.008;2024-01-07T01:37:31;14.40;;;8.03;;
61821;SDS011;47749;51.104;7.008;2024-01-07T01:37:52;14.80;;;8.40;;
61821;SDS011;47749;51.104;7.008;2024-01-07T01:38:14;14.15;;;7.95;;
61821;SDS011;47749;51.104;7.008;2024-01-07T01:38:34;14.53;;;8.00;;
61821;SDS011;47749;51.104;7.008;2024-01-07T01:38:55;14.60;;;7.93;;
61821;SDS011;47749;51.104;7.008;2024-01-07T01:39:15;13.03;;;7.53;;
61821;SDS011;47749;51.104;7.008;2024-01-07T01:39:35;13.45;;;7.95;;
61821;SDS011;47749;51.104;7.008;2024-01-07T01:39:56;13.70;;;7.32;;
61821;SDS011;47749;51.104;7.008;2024-01-07T01:40:17;14.43;;;8.03;;
61821;SDS011;47749;51.104;7.008;2024-01-07T01:40:37;14.23;;;8.23;;
61821;SDS011;47749;51.104;7.008;2024-01-07T01:40:57;13.87;;;7.97;;
61821;SDS011;47749;51.104;7.008;2024-01-07T01:41:18;13.30;;;7.97;;
61821;SDS011;47749;51.104;7.008;2024-01-07T01:41:38;15.17;;;7.77;;
61821;SDS011;47749;51.104;7.008;2024-01-07T01:41:58;14.67;;;8.30;;
61821;SDS011;47749;51.104;7.008;2024-01-07T01:42:19;14.85;;;8.45;;
61821;SDS011;47749;51.104;7.008;2024-01-07T01:42:42;15.23;;;8.40;;
61821;SDS011;47749;51.104;7.008;2024-01-07T01:43:03;16.25;;;8.88;;
61821;SDS011;47749;51.104;7.008;2024-01-07T01:43:26;16.00;;;8.50;;
61821;SDS011;47749;51.104;7.008;2024-01-07T01:43:47;14.13;;;8.02;;
61821;SDS011;47749;51.104;7.008;2024-01-07T01:44:07;16.37;;;8.53;;
61821;SDS011;47749;51.104;7.008;2024-01-07T01:44:27;15.68;;;8.07;;
61821;SDS011;47749;51.104;7.008;2024-01-07T01:44:48;15.37;;;8.50;;
61821;SDS011;47749;51.104;7.008;2024-01-07T01:45:08;16.27;;;8.73;;
61821;SDS011;47749;51.104;7.008;2024-01-07T01:45:28;14.37;;;8.63;;
61821;SDS011;47749;51.104;7.008;2024-01-07T01:45:49;13.63;;;8.17;;
61821;SDS011;47749;51.104;7.008;2024-01-07T01:46:09;15.68;;;8.90;;
61821;SDS011;47749;51.104;7.008;2024-01-07T01:46:29;16.73;;;8.93;;
61821;SDS011;47749;51.104;7.008;2024-01-07T01:46:49;16.23;;;8.87;;
61821;SDS011;47749;51.104;7.008;2024-01-07T01:47:10;15.68;;;8.68;;
61821;SDS011;47749;51.104;7.008;2024-01-07T01:47:30;15.73;;;8.70;;
61821;SDS011;47749;51.104;7.008;2024-01-07T01:47:51;15.73;;;8.88;;
61821;SDS011;47749;51.104;7.008;2024-01-07T01:48:11;17.07;;;9.20;;
61821;SDS011;47749;51.104;7.008;2024-01-07T01:48:31;15.85;;;9.15;;
61821;SDS011;47749;51.104;7.008;2024-01-07T01:48:52;14.20;;;8.87;;
61821;SDS011;47749;51.104;7.008;2024-01-07T01:49:12;14.32;;;8.35;;
61821;SDS011;47749;51.104;7.008;2024-01-07T01:49:33;15.40;;;8.37;;
61821;SDS011;47749;51.104;7.008;2024-01-07T01:49:55;15.60;;;9.10;;
61821;SDS011;47749;51.104;7.008;2024-01-07T01:50:16;15.70;;;9.37;;
61821;SDS011;47749;51.104;7.008;2024-01-07T01:50:37;16.48;;;9.13;;
61821;SDS011;47749;51.104;7.008;2024-01-07T01:50:58;16.00;;;8.63;;
61821;SDS011;47749;51.104;7.008;2024-01-07T01:51:18;15.60;;;8.77;;
61821;SDS011;47749;51.104;7.008;2024-01-07T01:51:39;16.20;;;8.95;;
61821;SDS011;47749;51.104;7.008;2024-01-07T01:51:59;15.83;;;9.10;;
61821;SDS011;47749;51.104;7.008;2024-01-07T01:52:20;16.35;;;8.93;;
61821;SDS011;47749;51.104;7.008;2024-01-07T01:52:40;14.83;;;8.37;;
61821;SDS011;47749;51.104;7.008;2024-01-07T01:53:01;14.45;;;8.93;;
61821;SDS011;47749;51.104;7.008;2024-01-07T01:53:21;15.73;;;9.10;;
61821;SDS011;47749;51.104;7.008;2024-01-07T01:53:41;14.88;;;9.18;;
61821;SDS011;47749;51.104;7.008;2024-01-07T01:54:02;15.27;;;9.53;;
61821;SDS011;47749;51.104;7.008;2024-01-07T01:54:22;15.43;;;9.47;;
61821;SDS011;47749;51.104;7.008;2024-01-07T01:54:43;15.30;;;9.63;;
61821;SDS011;47749;51.104;7.008;2024-01-07T01:55:04;16.00;;;9.40;;
61821;SDS011;47749;51.104;7.008;2024-01-07T01:55:25;16.80;;;9.30;;
61821;SDS011;47749;51.104;7.008;2024-01-07T01:55:45;15.65;;;9.27;;
61821;SDS011;47749;51.104;7.008;2024-01-07T01:56:05;15.50;;;9.20;;
61821;SDS011;47749;51.104;7.008;2024-01-07T01:56:27;16.17;;;9.40;;
61821;SDS011;47749;51.104;7.008;2024-01-07T01:56:47;16.95;;;9.70;;
61821;SDS011;47749;51.104;7.008;2024-01-07T01:57:08;18.42;;;10.18;;
61821;SDS011;47749;51.104;7.008;2024-01-07T01:57:34;16.08;;;9.52;;
61821;SDS011;47749;51.104;7.008;2024-01-07T01:57:57;18.02;;;10.35;;
61821;SDS011;47749;51.104;7.008;2024-01-07T01:58:19;17.15;;;9.82;;
61821;SDS011;47749;51.104;7.008;2024-01-07T01:58:40;17.40;;;10.27;;
61821;SDS011;47749;51.104;7.008;2024-01-07T01:59:01;17.60;;;9.80;;
61821;SDS011;47749;51.104;7.008;2024-01-07T01:59:21;17.67;;;9.83;;
61821;SDS011;47749;51.104;7.008;2024-01-07T01:59:42;15.57;;;9.70;;
61821;SDS011;47749;51.104;7.008;2024-01-07T02:00:03;15.93;;;9.82;;
61821;SDS011;47749;51.104;7.008;2024-01-07T02:00:25;16.90;;;9.70;;
61821;SDS011;47749;51.104;7.008;2024-01-07T02:00:47;17.48;;;9.85;;
61821;SDS011;47749;51.104;7.008;2024-01-07T02:01:07;18.70;;;10.45;;
61821;SDS011;47749;51.104;7.008;2024-01-07T02:01:27;16.73;;;10.00;;
61821;SDS011;47749;51.104;7.008;2024-01-07T02:01:48;17.48;;;10.13;;
61821;SDS011;47749;51.104;7.008;2024-01-07T02:02:08;17.87;;;10.37;;
61821;SDS011;47749;51.104;7.008;2024-01-07T02:02:29;16.67;;;10.38;;
61821;SDS011;47749;51.104;7.008;2024-01-07T02:02:51;16.95;;;9.77;;